Forside
METAR-TAF:

METAR-TAF

Lufthavne :

Lima, Ohio, USA

Breddekreds: 40-42-29N, længdekreds: 084-01-17W, højde: 297 m

Aktuelle vejr

Denne rapport blev lavet for 52 minutter siden, kl. 20:53 UTC
Vind 14 kt fra vestsydvest
Temperatur 1°C
Fugtighed 86%
Tryk 1012 hPa
Sigt: 14.5 km
Overskyet i en højde af 900 ft

METAR: KAOH 262053Z AUTO 24014KT 9SM OVC009 01/M01 A2987 RMK AO2 SLP125 T00061011 55007

Tid: 16:45 (21:45 UTC)


TAF: fraværende

Vejrobservationer og prognoser fra mere end 4000 lufthavne (METAR og TAF).

De gule og røde prikker repræsenterer de meteorologiske stationer.

Flyt musen over at se navnet på stationen.

Så klik over at se vejr observationer og prognoser.

At skifte det kort: Klik på de grønne knapper med et sort kors for at zoome ind; på den grønne knap med en bindestreg for at zoome ud; eller på de grønne pile for tilstødende kort.


METAR-TAF: